Hovedside
METAR-TAF:

METAR-TAF

Lufthavner :

Sankt Michel, Finland

Sankt Michel lufthavn

breddegrad: 61-44N, lengdegrad: 027-18E, høyde over havet: 138 m

Gjeldene værobservasjon

Denne rapporten ble laget for 29 minutter siden, klokken 19:50 UTC
Vind 4 kt fra Øst-nordøst, skiftende mellom Nord og Øst-sørøst
Temperatur 13°C
Luftfuktighet 77%
Trykk 1001 hPa
Sikt 10 km eller mer
Spredte skyer i en høyde av 4600 ft
Spredte skyer i en høyde av 9800 ft
Brutte skyer i en høyde av 19900 ft

METAR: EFMI 281950Z AUTO 06004KT 350V120 9999 SCT046 SCT098 BKN199 13/09 Q1001

Tid: 23:19 (20:19 UTC)


TAF: fraværende

Værobservasjoner og værvarsel for over 4000 flyplasser (METAR- og TAF-rapporter).

Tilgjengelige stasjoner er representert av de røde og gule prikkene på kartet.

Hold musepekeren over prikken for å se navnet på stasjonen.

Klikk så for å se værobservasjoner og -varsler.

For å forandre kartet kan du klikke på den grønne knappen med svart kryss for å zoome inn, på den grønne knappen med strek for å zoome ut, eller på de grønne pilene for å se tilstøtende kart.


METAR-TAF: